sensor_id;sensor_type;location;lat;lon;timestamp;P1;durP1;ratioP1;P2;durP2;ratioP2
10719;SDS011;5411;58.386;15.560;2023-03-01T00:01:46;2.47;;;1.50;;
10719;SDS011;5411;58.386;15.560;2023-03-01T00:04:17;1.87;;;1.20;;
10719;SDS011;5411;58.386;15.560;2023-03-01T00:06:46;2.10;;;1.30;;
10719;SDS011;5411;58.386;15.560;2023-03-01T00:09:14;2.47;;;1.53;;
10719;SDS011;5411;58.386;15.560;2023-03-01T00:11:43;3.10;;;1.70;;
10719;SDS011;5411;58.386;15.560;2023-03-01T00:14:13;2.27;;;1.43;;
10719;SDS011;5411;58.386;15.560;2023-03-01T00:16:44;1.53;;;1.30;;
10719;SDS011;5411;58.386;15.560;2023-03-01T00:19:14;2.80;;;1.60;;
10719;SDS011;5411;58.386;15.560;2023-03-01T00:21:43;2.23;;;1.43;;
10719;SDS011;5411;58.386;15.560;2023-03-01T00:24:12;1.80;;;1.43;;
10719;SDS011;5411;58.386;15.560;2023-03-01T00:26:40;2.47;;;1.30;;
10719;SDS011;5411;58.386;15.560;2023-03-01T00:29:09;2.73;;;1.43;;
10719;SDS011;5411;58.386;15.560;2023-03-01T00:31:37;2.20;;;2.00;;
10719;SDS011;5411;58.386;15.560;2023-03-01T00:34:07;1.90;;;1.43;;
10719;SDS011;5411;58.386;15.560;2023-03-01T00:36:36;2.07;;;1.63;;
10719;SDS011;5411;58.386;15.560;2023-03-01T00:39:05;2.73;;;1.40;;
10719;SDS011;5411;58.386;15.560;2023-03-01T00:41:37;1.23;;;1.13;;
10719;SDS011;5411;58.386;15.560;2023-03-01T00:44:06;1.67;;;1.30;;
10719;SDS011;5411;58.386;15.560;2023-03-01T00:46:34;2.20;;;1.40;;
10719;SDS011;5411;58.386;15.560;2023-03-01T00:49:03;2.30;;;1.60;;
10719;SDS011;5411;58.386;15.560;2023-03-01T00:51:36;1.83;;;1.50;;
10719;SDS011;5411;58.386;15.560;2023-03-01T00:54:05;2.30;;;1.57;;
10719;SDS011;5411;58.386;15.560;2023-03-01T00:56:35;2.00;;;1.63;;
10719;SDS011;5411;58.386;15.560;2023-03-01T00:59:04;2.53;;;1.40;;
10719;SDS011;5411;58.386;15.560;2023-03-01T01:01:32;2.20;;;1.47;;
10719;SDS011;5411;58.386;15.560;2023-03-01T01:04:01;3.83;;;1.67;;
10719;SDS011;5411;58.386;15.560;2023-03-01T01:06:32;2.83;;;1.60;;
10719;SDS011;5411;58.386;15.560;2023-03-01T01:09:05;2.97;;;1.70;;
10719;SDS011;5411;58.386;15.560;2023-03-01T01:11:34;1.60;;;1.50;;
10719;SDS011;5411;58.386;15.560;2023-03-01T01:14:03;2.73;;;1.90;;
10719;SDS011;5411;58.386;15.560;2023-03-01T01:16:32;3.23;;;2.03;;
10719;SDS011;5411;58.386;15.560;2023-03-01T01:19:01;1.97;;;1.73;;
10719;SDS011;5411;58.386;15.560;2023-03-01T01:21:29;2.47;;;1.90;;
10719;SDS011;5411;58.386;15.560;2023-03-01T01:23:59;2.90;;;1.67;;
10719;SDS011;5411;58.386;15.560;2023-03-01T01:26:30;2.60;;;1.60;;
10719;SDS011;5411;58.386;15.560;2023-03-01T01:29:00;1.90;;;1.77;;
10719;SDS011;5411;58.386;15.560;2023-03-01T01:31:31;2.40;;;1.97;;
10719;SDS011;5411;58.386;15.560;2023-03-01T01:34:00;2.73;;;1.60;;
10719;SDS011;5411;58.386;15.560;2023-03-01T01:36:29;3.80;;;1.80;;
10719;SDS011;5411;58.386;15.560;2023-03-01T01:38:58;2.13;;;1.67;;
10719;SDS011;5411;58.386;15.560;2023-03-01T01:41:29;1.87;;;1.50;;
10719;SDS011;5411;58.386;15.560;2023-03-01T01:44:11;2.40;;;1.50;;
10719;SDS011;5411;58.386;15.560;2023-03-01T01:46:41;1.70;;;1.60;;
10719;SDS011;5411;58.386;15.560;2023-03-01T01:49:22;2.90;;;1.70;;
10719;SDS011;5411;58.386;15.560;2023-03-01T01:52:04;2.00;;;1.40;;
10719;SDS011;5411;58.386;15.560;2023-03-01T01:54:41;1.97;;;1.70;;
10719;SDS011;5411;58.386;15.560;2023-03-01T01:57:16;2.60;;;1.70;;
10719;SDS011;5411;58.386;15.560;2023-03-01T01:59:48;3.57;;;2.17;;
10719;SDS011;5411;58.386;15.560;2023-03-01T02:02:20;2.60;;;2.23;;
10719;SDS011;5411;58.386;15.560;2023-03-01T02:04:55;1.40;;;1.30;;
10719;SDS011;5411;58.386;15.560;2023-03-01T02:07:31;2.20;;;1.70;;
10719;SDS011;5411;58.386;15.560;2023-03-01T02:10:02;4.10;;;1.80;;
10719;SDS011;5411;58.386;15.560;2023-03-01T02:12:35;2.70;;;2.20;;
10719;SDS011;5411;58.386;15.560;2023-03-01T02:15:06;2.17;;;1.50;;
10719;SDS011;5411;58.386;15.560;2023-03-01T02:17:35;3.00;;;2.00;;
10719;SDS011;5411;58.386;15.560;2023-03-01T02:20:07;1.30;;;1.20;;
10719;SDS011;5411;58.386;15.560;2023-03-01T02:22:53;2.70;;;1.20;;
10719;SDS011;5411;58.386;15.560;2023-03-01T02:25:29;1.97;;;1.20;;
10719;SDS011;5411;58.386;15.560;2023-03-01T02:28:05;2.67;;;1.50;;
10719;SDS011;5411;58.386;15.560;2023-03-01T02:30:42;2.47;;;1.90;;
10719;SDS011;5411;58.386;15.560;2023-03-01T02:33:25;1.10;;;1.00;;
10719;SDS011;5411;58.386;15.560;2023-03-01T02:35:56;0.93;;;0.90;;
10719;SDS011;5411;58.386;15.560;2023-03-01T02:38:25;1.30;;;1.20;;
10719;SDS011;5411;58.386;15.560;2023-03-01T02:40:54;2.70;;;1.00;;
10719;SDS011;5411;58.386;15.560;2023-03-01T02:43:30;3.47;;;1.20;;
10719;SDS011;5411;58.386;15.560;2023-03-01T02:46:04;1.10;;;0.90;;
10719;SDS011;5411;58.386;15.560;2023-03-01T02:48:41;1.40;;;1.30;;
10719;SDS011;5411;58.386;15.560;2023-03-01T02:51:16;2.13;;;0.93;;
10719;SDS011;5411;58.386;15.560;2023-03-01T02:53:58;1.10;;;1.00;;
10719;SDS011;5411;58.386;15.560;2023-03-01T02:56:36;1.00;;;0.90;;
10719;SDS011;5411;58.386;15.560;2023-03-01T02:59:04;0.83;;;0.83;;
10719;SDS011;5411;58.386;15.560;2023-03-01T03:01:35;0.93;;;0.90;;
10719;SDS011;5411;58.386;15.560;2023-03-01T03:04:06;4.07;;;1.73;;
10719;SDS011;5411;58.386;15.560;2023-03-01T03:06:36;1.20;;;1.10;;
10719;SDS011;5411;58.386;15.560;2023-03-01T03:09:05;1.17;;;0.93;;
10719;SDS011;5411;58.386;15.560;2023-03-01T03:11:36;1.53;;;1.03;;
10719;SDS011;5411;58.386;15.560;2023-03-01T03:14:05;1.30;;;0.87;;
10719;SDS011;5411;58.386;15.560;2023-03-01T03:16:41;1.47;;;0.87;;
10719;SDS011;5411;58.386;15.560;2023-03-01T03:19:11;1.53;;;1.17;;
10719;SDS011;5411;58.386;15.560;2023-03-01T03:21:39;2.10;;;1.00;;
10719;SDS011;5411;58.386;15.560;2023-03-01T03:24:08;0.97;;;0.90;;
10719;SDS011;5411;58.386;15.560;2023-03-01T03:26:36;0.70;;;0.70;;
10719;SDS011;5411;58.386;15.560;2023-03-01T03:29:07;1.40;;;1.10;;
10719;SDS011;5411;58.386;15.560;2023-03-01T03:31:36;1.43;;;1.20;;
10719;SDS011;5411;58.386;15.560;2023-03-01T03:34:06;2.80;;;1.10;;
10719;SDS011;5411;58.386;15.560;2023-03-01T03:36:37;1.83;;;1.20;;
10719;SDS011;5411;58.386;15.560;2023-03-01T03:39:05;1.10;;;1.00;;
10719;SDS011;5411;58.386;15.560;2023-03-01T03:41:34;1.30;;;1.20;;
10719;SDS011;5411;58.386;15.560;2023-03-01T03:44:02;1.33;;;1.03;;
10719;SDS011;5411;58.386;15.560;2023-03-01T03:46:30;1.00;;;0.90;;
10719;SDS011;5411;58.386;15.560;2023-03-01T03:48:59;0.80;;;0.80;;
10719;SDS011;5411;58.386;15.560;2023-03-01T03:51:29;1.07;;;0.97;;
10719;SDS011;5411;58.386;15.560;2023-03-01T03:53:57;1.63;;;1.00;;
10719;SDS011;5411;58.386;15.560;2023-03-01T03:56:25;1.27;;;1.17;;
10719;SDS011;5411;58.386;15.560;2023-03-01T03:58:54;1.50;;;1.13;;
10719;SDS011;5411;58.386;15.560;2023-03-01T04:01:22;1.70;;;1.00;;
10719;SDS011;5411;58.386;15.560;2023-03-01T04:03:51;1.20;;;1.10;;
10719;SDS011;5411;58.386;15.560;2023-03-01T04:06:20;1.40;;;1.20;;
10719;SDS011;5411;58.386;15.560;2023-03-01T04:08:51;1.43;;;1.33;;
10719;SDS011;5411;58.386;15.560;2023-03-01T04:11:24;1.77;;;1.47;;
10719;SDS011;5411;58.386;15.560;2023-03-01T04:13:53;1.80;;;1.30;;
10719;SDS011;5411;58.386;15.560;2023-03-01T04:16:23;2.03;;;1.40;;
10719;SDS011;5411;58.386;15.560;2023-03-01T04:18:52;2.50;;;1.50;;
10719;SDS011;5411;58.386;15.560;2023-03-01T04:21:21;1.80;;;1.40;;
10719;SDS011;5411;58.386;15.560;2023-03-01T04:23:51;1.67;;;1.30;;
10719;SDS011;5411;58.386;15.560;2023-03-01T04:26:20;1.37;;;1.27;;
10719;SDS011;5411;58.386;15.560;2023-03-01T04:28:48;1.60;;;1.50;;
10719;SDS011;5411;58.386;15.560;2023-03-01T04:31:17;2.17;;;1.97;;
10719;SDS011;5411;58.386;15.560;2023-03-01T04:33:48;1.50;;;1.20;;
10719;SDS011;5411;58.386;15.560;2023-03-01T04:36:21;2.23;;;1.40;;
10719;SDS011;5411;58.386;15.560;2023-03-01T04:38:53;2.00;;;1.80;;
10719;SDS011;5411;58.386;15.560;2023-03-01T04:41:23;1.97;;;1.17;;
10719;SDS011;5411;58.386;15.560;2023-03-01T04:43:53;1.63;;;1.40;;
10719;SDS011;5411;58.386;15.560;2023-03-01T04:46:22;1.20;;;1.00;;
10719;SDS011;5411;58.386;15.560;2023-03-01T04:48:51;2.40;;;1.40;;
10719;SDS011;5411;58.386;15.560;2023-03-01T04:51:20;1.20;;;1.00;;
10719;SDS011;5411;58.386;15.560;2023-03-01T04:53:48;1.60;;;1.50;;
10719;SDS011;5411;58.386;15.560;2023-03-01T04:56:21;1.43;;;1.30;;
10719;SDS011;5411;58.386;15.560;2023-03-01T04:58:52;3.10;;;1.40;;
10719;SDS011;5411;58.386;15.560;2023-03-01T05:01:22;3.13;;;1.17;;
10719;SDS011;5411;58.386;15.560;2023-03-01T05:03:50;2.07;;;1.40;;
10719;SDS011;5411;58.386;15.560;2023-03-01T05:06:19;1.90;;;1.33;;
10719;SDS011;5411;58.386;15.560;2023-03-01T05:08:54;1.53;;;1.33;;
10719;SDS011;5411;58.386;15.560;2023-03-01T05:11:25;1.83;;;1.30;;
10719;SDS011;5411;58.386;15.560;2023-03-01T05:13:58;1.50;;;1.40;;
10719;SDS011;5411;58.386;15.560;2023-03-01T05:16:26;1.70;;;1.40;;
10719;SDS011;5411;58.386;15.560;2023-03-01T05:19:00;1.43;;;1.30;;
10719;SDS011;5411;58.386;15.560;2023-03-01T05:21:38;1.70;;;1.10;;
10719;SDS011;5411;58.386;15.560;2023-03-01T05:24:27;1.47;;;1.20;;
10719;SDS011;5411;58.386;15.560;2023-03-01T05:26:57;1.27;;;1.17;;
10719;SDS011;5411;58.386;15.560;2023-03-01T05:29:27;1.87;;;1.47;;
10719;SDS011;5411;58.386;15.560;2023-03-01T05:31:56;3.83;;;1.60;;
10719;SDS011;5411;58.386;15.560;2023-03-01T05:34:28;1.40;;;1.10;;
10719;SDS011;5411;58.386;15.560;2023-03-01T05:36:58;1.77;;;1.30;;
10719;SDS011;5411;58.386;15.560;2023-03-01T05:39:28;1.93;;;1.40;;
10719;SDS011;5411;58.386;15.560;2023-03-01T05:42:00;1.73;;;1.50;;
10719;SDS011;5411;58.386;15.560;2023-03-01T05:44:28;2.77;;;1.60;;
10719;SDS011;5411;58.386;15.560;2023-03-01T05:46:59;1.87;;;1.43;;
10719;SDS011;5411;58.386;15.560;2023-03-01T05:49:28;3.40;;;1.27;;
10719;SDS011;5411;58.386;15.560;2023-03-01T05:51:56;1.47;;;1.37;;
10719;SDS011;5411;58.386;15.560;2023-03-01T05:54:25;2.80;;;1.50;;
10719;SDS011;5411;58.386;15.560;2023-03-01T05:56:53;1.30;;;1.20;;
10719;SDS011;5411;58.386;15.560;2023-03-01T05:59:24;1.80;;;1.20;;
10719;SDS011;5411;58.386;15.560;2023-03-01T06:01:52;1.20;;;1.17;;
10719;SDS011;5411;58.386;15.560;2023-03-01T06:04:20;1.63;;;1.10;;
10719;SDS011;5411;58.386;15.560;2023-03-01T06:06:49;2.23;;;1.60;;
10719;SDS011;5411;58.386;15.560;2023-03-01T06:09:19;1.57;;;1.47;;
10719;SDS011;5411;58.386;15.560;2023-03-01T06:11:50;1.27;;;1.13;;
10719;SDS011;5411;58.386;15.560;2023-03-01T06:14:19;1.40;;;1.30;;
10719;SDS011;5411;58.386;15.560;2023-03-01T06:16:49;1.30;;;1.20;;
10719;SDS011;5411;58.386;15.560;2023-03-01T06:19:18;3.10;;;1.30;;
10719;SDS011;5411;58.386;15.560;2023-03-01T06:21:46;1.57;;;1.20;;
10719;SDS011;5411;58.386;15.560;2023-03-01T06:24:14;1.63;;;1.20;;
10719;SDS011;5411;58.386;15.560;2023-03-01T06:26:43;2.20;;;1.67;;
10719;SDS011;5411;58.386;15.560;2023-03-01T06:29:11;2.40;;;1.60;;
10719;SDS011;5411;58.386;15.560;2023-03-01T06:31:41;2.77;;;1.40;;
10719;SDS011;5411;58.386;15.560;2023-03-01T06:34:10;2.30;;;1.90;;
10719;SDS011;5411;58.386;15.560;2023-03-01T06:36:40;1.83;;;1.40;;
10719;SDS011;5411;58.386;15.560;2023-03-01T06:39:08;1.23;;;1.13;;
10719;SDS011;5411;58.386;15.560;2023-03-01T06:41:36;1.73;;;1.17;;
10719;SDS011;5411;58.386;15.560;2023-03-01T06:44:08;3.53;;;1.40;;
10719;SDS011;5411;58.386;15.560;2023-03-01T06:46:36;1.40;;;1.20;;
10719;SDS011;5411;58.386;15.560;2023-03-01T06:49:06;4.97;;;1.40;;
10719;SDS011;5411;58.386;15.560;2023-03-01T06:51:37;2.20;;;1.50;;
10719;SDS011;5411;58.386;15.560;2023-03-01T06:54:05;1.00;;;1.00;;
10719;SDS011;5411;58.386;15.560;2023-03-01T06:56:34;1.47;;;1.37;;
10719;SDS011;5411;58.386;15.560;2023-03-01T06:59:02;1.93;;;1.20;;
10719;SDS011;5411;58.386;15.560;2023-03-01T07:01:31;1.27;;;1.13;;
10719;SDS011;5411;58.386;15.560;2023-03-01T07:03:59;2.50;;;1.30;;
10719;SDS011;5411;58.386;15.560;2023-03-01T07:06:28;1.30;;;1.20;;
10719;SDS011;5411;58.386;15.560;2023-03-01T07:08:58;2.33;;;1.00;;
10719;SDS011;5411;58.386;15.560;2023-03-01T07:11:26;1.60;;;1.50;;
10719;SDS011;5411;58.386;15.560;2023-03-01T07:13:55;2.53;;;1.67;;
10719;SDS011;5411;58.386;15.560;2023-03-01T07:16:24;1.50;;;1.37;;
10719;SDS011;5411;58.386;15.560;2023-03-01T07:18:53;2.50;;;1.37;;
10719;SDS011;5411;58.386;15.560;2023-03-01T07:21:23;1.50;;;1.40;;
10719;SDS011;5411;58.386;15.560;2023-03-01T07:23:51;1.53;;;1.20;;
10719;SDS011;5411;58.386;15.560;2023-03-01T07:26:21;4.33;;;1.50;;
10719;SDS011;5411;58.386;15.560;2023-03-01T07:28:51;2.80;;;1.40;;
10719;SDS011;5411;58.386;15.560;2023-03-01T07:31:19;2.90;;;1.77;;
10719;SDS011;5411;58.386;15.560;2023-03-01T07:33:48;3.10;;;1.27;;
10719;SDS011;5411;58.386;15.560;2023-03-01T07:36:16;2.40;;;1.70;;
10719;SDS011;5411;58.386;15.560;2023-03-01T07:38:44;2.97;;;1.53;;
10719;SDS011;5411;58.386;15.560;2023-03-01T07:41:13;2.00;;;1.80;;
10719;SDS011;5411;58.386;15.560;2023-03-01T07:43:43;3.57;;;1.60;;
10719;SDS011;5411;58.386;15.560;2023-03-01T07:46:11;4.03;;;1.53;;
10719;SDS011;5411;58.386;15.560;2023-03-01T07:48:40;2.67;;;1.40;;
10719;SDS011;5411;58.386;15.560;2023-03-01T07:51:09;2.77;;;1.50;;
10719;SDS011;5411;58.386;15.560;2023-03-01T07:53:38;4.17;;;1.67;;
10719;SDS011;5411;58.386;15.560;2023-03-01T07:56:07;1.90;;;1.70;;
10719;SDS011;5411;58.386;15.560;2023-03-01T07:58:36;2.00;;;1.80;;
10719;SDS011;5411;58.386;15.560;2023-03-01T08:01:08;2.83;;;2.13;;
10719;SDS011;5411;58.386;15.560;2023-03-01T08:03:37;1.80;;;1.70;;
10719;SDS011;5411;58.386;15.560;2023-03-01T08:06:10;4.60;;;2.20;;
10719;SDS011;5411;58.386;15.560;2023-03-01T08:08:40;3.40;;;2.80;;
10719;SDS011;5411;58.386;15.560;2023-03-01T08:11:09;2.80;;;1.97;;
10719;SDS011;5411;58.386;15.560;2023-03-01T08:13:40;3.33;;;2.33;;
10719;SDS011;5411;58.386;15.560;2023-03-01T08:16:11;2.80;;;1.60;;
10719;SDS011;5411;58.386;15.560;2023-03-01T08:18:41;3.80;;;1.70;;
10719;SDS011;5411;58.386;15.560;2023-03-01T08:21:13;2.93;;;2.20;;
10719;SDS011;5411;58.386;15.560;2023-03-01T08:23:43;4.87;;;2.67;;
10719;SDS011;5411;58.386;15.560;2023-03-01T08:26:12;3.00;;;1.60;;
10719;SDS011;5411;58.386;15.560;2023-03-01T08:28:43;3.47;;;2.17;;
10719;SDS011;5411;58.386;15.560;2023-03-01T08:31:17;2.50;;;1.70;;
10719;SDS011;5411;58.386;15.560;2023-03-01T08:33:48;3.60;;;2.17;;
10719;SDS011;5411;58.386;15.560;2023-03-01T08:36:21;4.30;;;2.50;;
10719;SDS011;5411;58.386;15.560;2023-03-01T08:38:51;2.67;;;2.07;;
10719;SDS011;5411;58.386;15.560;2023-03-01T08:41:19;1.70;;;1.60;;
10719;SDS011;5411;58.386;15.560;2023-03-01T08:43:51;6.67;;;1.80;;
10719;SDS011;5411;58.386;15.560;2023-03-01T08:46:27;2.90;;;1.90;;
10719;SDS011;5411;58.386;15.560;2023-03-01T08:48:56;1.60;;;1.20;;
10719;SDS011;5411;58.386;15.560;2023-03-01T08:51:25;1.13;;;1.03;;
10719;SDS011;5411;58.386;15.560;2023-03-01T08:53:55;1.27;;;1.17;;
10719;SDS011;5411;58.386;15.560;2023-03-01T08:56:23;2.20;;;1.60;;
10719;SDS011;5411;58.386;15.560;2023-03-01T08:58:52;2.73;;;1.20;;
10719;SDS011;5411;58.386;15.560;2023-03-01T09:01:20;2.90;;;1.00;;
10719;SDS011;5411;58.386;15.560;2023-03-01T09:03:50;1.03;;;0.77;;
10719;SDS011;5411;58.386;15.560;2023-03-01T09:06:19;2.17;;;1.10;;
10719;SDS011;5411;58.386;15.560;2023-03-01T09:08:47;1.77;;;0.90;;
10719;SDS011;5411;58.386;15.560;2023-03-01T09:11:17;1.30;;;1.20;;
10719;SDS011;5411;58.386;15.560;2023-03-01T09:13:49;0.80;;;0.80;;
10719;SDS011;5411;58.386;15.560;2023-03-01T09:16:18;2.10;;;0.90;;
10719;SDS011;5411;58.386;15.560;2023-03-01T09:18:50;0.80;;;0.80;;
10719;SDS011;5411;58.386;15.560;2023-03-01T09:21:20;0.90;;;0.70;;
10719;SDS011;5411;58.386;15.560;2023-03-01T09:24:05;1.83;;;0.90;;
10719;SDS011;5411;58.386;15.560;2023-03-01T09:26:34;2.73;;;1.10;;
10719;SDS011;5411;58.386;15.560;2023-03-01T09:29:03;1.60;;;1.00;;
10719;SDS011;5411;58.386;15.560;2023-03-01T09:31:31;1.10;;;1.00;;
10719;SDS011;5411;58.386;15.560;2023-03-01T09:34:01;1.47;;;0.80;;
10719;SDS011;5411;58.386;15.560;2023-03-01T09:36:29;3.33;;;1.30;;
10719;SDS011;5411;58.386;15.560;2023-03-01T09:38:58;1.60;;;1.13;;
10719;SDS011;5411;58.386;15.560;2023-03-01T09:41:34;1.90;;;0.90;;
10719;SDS011;5411;58.386;15.560;2023-03-01T09:44:13;1.17;;;0.70;;
10719;SDS011;5411;58.386;15.560;2023-03-01T09:46:49;2.67;;;0.97;;
10719;SDS011;5411;58.386;15.560;2023-03-01T09:49:21;1.67;;;1.07;;
10719;SDS011;5411;58.386;15.560;2023-03-01T09:51:56;1.00;;;1.00;;
10719;SDS011;5411;58.386;15.560;2023-03-01T09:54:28;1.13;;;1.10;;
10719;SDS011;5411;58.386;15.560;2023-03-01T09:56:59;1.13;;;1.00;;
10719;SDS011;5411;58.386;15.560;2023-03-01T09:59:37;1.40;;;1.27;;
10719;SDS011;5411;58.386;15.560;2023-03-01T10:02:27;2.00;;;1.30;;
10719;SDS011;5411;58.386;15.560;2023-03-01T10:05:10;2.07;;;1.37;;
10719;SDS011;5411;58.386;15.560;2023-03-01T10:07:52;2.20;;;1.33;;
10719;SDS011;5411;58.386;15.560;2023-03-01T10:10:28;1.33;;;1.23;;
10719;SDS011;5411;58.386;15.560;2023-03-01T10:13:02;2.67;;;1.40;;
10719;SDS011;5411;58.386;15.560;2023-03-01T10:15:40;1.30;;;1.20;;
10719;SDS011;5411;58.386;15.560;2023-03-01T10:18:12;3.13;;;1.20;;
10719;SDS011;5411;58.386;15.560;2023-03-01T10:20:48;3.10;;;1.00;;
10719;SDS011;5411;58.386;15.560;2023-03-01T10:23:22;3.03;;;1.77;;
10719;SDS011;5411;58.386;15.560;2023-03-01T10:26:04;2.43;;;1.10;;
10719;SDS011;5411;58.386;15.560;2023-03-01T10:28:42;6.43;;;1.40;;
10719;SDS011;5411;58.386;15.560;2023-03-01T10:31:20;1.93;;;1.30;;
10719;SDS011;5411;58.386;15.560;2023-03-01T10:33:55;1.90;;;1.37;;
10719;SDS011;5411;58.386;15.560;2023-03-01T10:36:26;1.20;;;1.10;;
10719;SDS011;5411;58.386;15.560;2023-03-01T10:38:58;0.93;;;0.93;;
10719;SDS011;5411;58.386;15.560;2023-03-01T10:41:27;0.83;;;0.83;;
10719;SDS011;5411;58.386;15.560;2023-03-01T10:43:56;0.83;;;0.73;;
10719;SDS011;5411;58.386;15.560;2023-03-01T10:46:27;1.13;;;1.00;;
10719;SDS011;5411;58.386;15.560;2023-03-01T10:49:06;3.77;;;0.97;;
10719;SDS011;5411;58.386;15.560;2023-03-01T10:51:43;0.87;;;0.87;;
10719;SDS011;5411;58.386;15.560;2023-03-01T10:54:15;1.60;;;0.90;;
10719;SDS011;5411;58.386;15.560;2023-03-01T10:56:46;1.90;;;1.00;;
10719;SDS011;5411;58.386;15.560;2023-03-01T10:59:22;2.40;;;0.80;;
10719;SDS011;5411;58.386;15.560;2023-03-01T11:04:58;0.70;;;0.70;;
10719;SDS011;5411;58.386;15.560;2023-03-01T11:07:30;1.13;;;1.03;;
10719;SDS011;5411;58.386;15.560;2023-03-01T11:09:58;1.23;;;1.10;;
10719;SDS011;5411;58.386;15.560;2023-03-01T11:12:27;3.27;;;0.83;;
10719;SDS011;5411;58.386;15.560;2023-03-01T11:14:56;2.40;;;0.70;;
10719;SDS011;5411;58.386;15.560;2023-03-01T11:17:27;1.47;;;0.80;;
10719;SDS011;5411;58.386;15.560;2023-03-01T11:20:06;2.37;;;0.70;;
10719;SDS011;5411;58.386;15.560;2023-03-01T11:22:46;1.63;;;0.80;;
10719;SDS011;5411;58.386;15.560;2023-03-01T11:25:19;2.87;;;0.70;;
10719;SDS011;5411;58.386;15.560;2023-03-01T11:27:51;0.80;;;0.70;;
10719;SDS011;5411;58.386;15.560;2023-03-01T11:30:21;0.80;;;0.80;;
10719;SDS011;5411;58.386;15.560;2023-03-01T11:32:54;0.77;;;0.77;;
10719;SDS011;5411;58.386;15.560;2023-03-01T11:35:31;0.80;;;0.77;;
10719;SDS011;5411;58.386;15.560;2023-03-01T11:38:09;1.20;;;1.10;;
10719;SDS011;5411;58.386;15.560;2023-03-01T11:40:50;0.80;;;0.80;;
10719;SDS011;5411;58.386;15.560;2023-03-01T11:43:30;1.47;;;0.60;;
10719;SDS011;5411;58.386;15.560;2023-03-01T11:49:16;1.57;;;0.80;;
10719;SDS011;5411;58.386;15.560;2023-03-01T11:52:03;1.77;;;1.00;;
10719;SDS011;5411;58.386;15.560;2023-03-01T11:54:49;0.70;;;0.70;;
10719;SDS011;5411;58.386;15.560;2023-03-01T11:57:29;0.90;;;0.90;;
10719;SDS011;5411;58.386;15.560;2023-03-01T12:00:14;4.90;;;1.03;;
10719;SDS011;5411;58.386;15.560;2023-03-01T12:02:57;3.60;;;1.00;;
10719;SDS011;5411;58.386;15.560;2023-03-01T12:08:53;0.93;;;0.93;;
10719;SDS011;5411;58.386;15.560;2023-03-01T12:11:50;0.90;;;0.80;;
10719;SDS011;5411;58.386;15.560;2023-03-01T12:14:37;1.50;;;0.70;;
10719;SDS011;5411;58.386;15.560;2023-03-01T12:17:39;1.93;;;0.67;;
10719;SDS011;5411;58.386;15.560;2023-03-01T12:20:23;1.73;;;0.70;;
10719;SDS011;5411;58.386;15.560;2023-03-01T12:23:02;1.07;;;0.97;;
10719;SDS011;5411;58.386;15.560;2023-03-01T12:25:46;3.70;;;1.20;;
10719;SDS011;5411;58.386;15.560;2023-03-01T12:28:24;1.60;;;0.83;;
10719;SDS011;5411;58.386;15.560;2023-03-01T12:34:15;1.20;;;0.77;;
10719;SDS011;5411;58.386;15.560;2023-03-01T12:36:59;3.23;;;0.90;;
10719;SDS011;5411;58.386;15.560;2023-03-01T12:39:51;1.20;;;0.70;;
10719;SDS011;5411;58.386;15.560;2023-03-01T12:42:32;0.97;;;0.87;;
10719;SDS011;5411;58.386;15.560;2023-03-01T12:48:18;1.40;;;0.80;;
10719;SDS011;5411;58.386;15.560;2023-03-01T12:50:57;0.80;;;0.80;;
10719;SDS011;5411;58.386;15.560;2023-03-01T12:53:29;2.03;;;1.00;;
10719;SDS011;5411;58.386;15.560;2023-03-01T12:56:00;0.90;;;0.90;;
10719;SDS011;5411;58.386;15.560;2023-03-01T12:58:30;1.27;;;0.80;;
10719;SDS011;5411;58.386;15.560;2023-03-01T13:01:18;0.70;;;0.70;;
10719;SDS011;5411;58.386;15.560;2023-03-01T13:04:02;0.70;;;0.70;;
10719;SDS011;5411;58.386;15.560;2023-03-01T13:06:44;0.70;;;0.70;;
10719;SDS011;5411;58.386;15.560;2023-03-01T13:09:24;1.00;;;0.80;;
10719;SDS011;5411;58.386;15.560;2023-03-01T13:11:58;3.23;;;1.33;;
10719;SDS011;5411;58.386;15.560;2023-03-01T13:17:30;2.20;;;0.83;;
10719;SDS011;5411;58.386;15.560;2023-03-01T13:20:14;0.80;;;0.80;;
10719;SDS011;5411;58.386;15.560;2023-03-01T13:22:44;1.40;;;0.70;;
10719;SDS011;5411;58.386;15.560;2023-03-01T13:25:20;1.17;;;0.90;;
10719;SDS011;5411;58.386;15.560;2023-03-01T13:31:01;1.67;;;1.20;;
10719;SDS011;5411;58.386;15.560;2023-03-01T13:33:43;1.07;;;0.90;;
10719;SDS011;5411;58.386;15.560;2023-03-01T13:39:28;1.30;;;1.00;;
10719;SDS011;5411;58.386;15.560;2023-03-01T13:42:02;1.00;;;1.00;;
10719;SDS011;5411;58.386;15.560;2023-03-01T13:44:32;0.80;;;0.80;;
10719;SDS011;5411;58.386;15.560;2023-03-01T13:47:05;4.93;;;1.27;;
10719;SDS011;5411;58.386;15.560;2023-03-01T13:49:46;1.53;;;0.77;;
10719;SDS011;5411;58.386;15.560;2023-03-01T13:55:13;1.10;;;1.00;;
10719;SDS011;5411;58.386;15.560;2023-03-01T13:57:46;1.07;;;1.00;;
10719;SDS011;5411;58.386;15.560;2023-03-01T14:00:27;1.90;;;1.00;;
10719;SDS011;5411;58.386;15.560;2023-03-01T14:03:12;0.83;;;0.80;;
10719;SDS011;5411;58.386;15.560;2023-03-01T14:05:56;1.10;;;0.90;;
10719;SDS011;5411;58.386;15.560;2023-03-01T14:08:41;1.90;;;0.60;;
10719;SDS011;5411;58.386;15.560;2023-03-01T14:11:35;2.40;;;1.03;;
10719;SDS011;5411;58.386;15.560;2023-03-01T14:14:27;2.20;;;1.17;;
10719;SDS011;5411;58.386;15.560;2023-03-01T14:20:17;1.57;;;1.47;;
10719;SDS011;5411;58.386;15.560;2023-03-01T14:22:50;7.67;;;1.30;;
10719;SDS011;5411;58.386;15.560;2023-03-01T14:25:22;1.07;;;0.80;;
10719;SDS011;5411;58.386;15.560;2023-03-01T14:27:56;1.77;;;0.80;;
10719;SDS011;5411;58.386;15.560;2023-03-01T14:30:31;1.20;;;1.10;;
10719;SDS011;5411;58.386;15.560;2023-03-01T14:33:04;0.67;;;0.67;;
10719;SDS011;5411;58.386;15.560;2023-03-01T14:35:36;0.80;;;0.80;;
10719;SDS011;5411;58.386;15.560;2023-03-01T14:38:19;1.10;;;0.67;;
10719;SDS011;5411;58.386;15.560;2023-03-01T14:40:50;1.83;;;0.70;;
10719;SDS011;5411;58.386;15.560;2023-03-01T14:43:23;1.00;;;1.00;;
10719;SDS011;5411;58.386;15.560;2023-03-01T14:45:53;1.03;;;0.70;;
10719;SDS011;5411;58.386;15.560;2023-03-01T14:48:21;1.20;;;0.77;;
10719;SDS011;5411;58.386;15.560;2023-03-01T14:50:50;0.77;;;0.77;;
10719;SDS011;5411;58.386;15.560;2023-03-01T14:53:21;0.90;;;0.70;;
10719;SDS011;5411;58.386;15.560;2023-03-01T14:55:52;0.70;;;0.70;;
10719;SDS011;5411;58.386;15.560;2023-03-01T14:58:22;2.63;;;0.80;;
10719;SDS011;5411;58.386;15.560;2023-03-01T15:00:53;0.73;;;0.73;;
10719;SDS011;5411;58.386;15.560;2023-03-01T15:03:25;1.30;;;0.80;;
10719;SDS011;5411;58.386;15.560;2023-03-01T15:05:58;0.70;;;0.70;;
10719;SDS011;5411;58.386;15.560;2023-03-01T15:08:29;0.83;;;0.83;;
10719;SDS011;5411;58.386;15.560;2023-03-01T15:11:01;0.70;;;0.70;;
10719;SDS011;5411;58.386;15.560;2023-03-01T15:13:34;1.97;;;1.10;;
10719;SDS011;5411;58.386;15.560;2023-03-01T15:16:07;0.90;;;0.60;;
10719;SDS011;5411;58.386;15.560;2023-03-01T15:18:42;0.93;;;0.77;;
10719;SDS011;5411;58.386;15.560;2023-03-01T15:21:16;2.10;;;0.80;;
10719;SDS011;5411;58.386;15.560;2023-03-01T15:23:52;0.90;;;0.90;;
10719;SDS011;5411;58.386;15.560;2023-03-01T15:26:23;0.90;;;0.90;;
10719;SDS011;5411;58.386;15.560;2023-03-01T15:28:56;2.87;;;0.80;;
10719;SDS011;5411;58.386;15.560;2023-03-01T15:31:27;0.80;;;0.80;;
10719;SDS011;5411;58.386;15.560;2023-03-01T15:34:07;1.67;;;0.70;;
10719;SDS011;5411;58.386;15.560;2023-03-01T15:36:39;1.13;;;0.90;;
10719;SDS011;5411;58.386;15.560;2023-03-01T15:42:10;0.80;;;0.80;;
10719;SDS011;5411;58.386;15.560;2023-03-01T15:44:43;0.60;;;0.60;;
10719;SDS011;5411;58.386;15.560;2023-03-01T15:47:22;1.03;;;0.90;;
10719;SDS011;5411;58.386;15.560;2023-03-01T15:49:54;2.20;;;0.80;;
10719;SDS011;5411;58.386;15.560;2023-03-01T15:52:23;0.70;;;0.70;;
10719;SDS011;5411;58.386;15.560;2023-03-01T15:54:58;0.80;;;0.60;;